createdAt,value
2018-08-10T00:00:43.484Z,100334.96
2018-08-10T00:03:14.410Z,100337.62
2018-08-10T00:05:45.103Z,100333.52
2018-08-10T00:08:15.780Z,100338.17
2018-08-10T00:10:46.432Z,100336.08
2018-08-10T00:13:17.190Z,100337.59
2018-08-10T00:15:47.780Z,100333.70
2018-08-10T00:18:18.227Z,100329.05
2018-08-10T00:20:48.558Z,100336.68
2018-08-10T00:23:19.381Z,100334.86
2018-08-10T00:25:50.110Z,100336.91
2018-08-10T00:28:20.550Z,100327.89
2018-08-10T00:30:50.889Z,100332.63
2018-08-10T00:33:21.430Z,100330.96
2018-08-10T00:35:51.904Z,100328.44
2018-08-10T00:38:22.517Z,100325.44
2018-08-10T00:40:53.053Z,100321.82
2018-08-10T00:43:23.889Z,100327.08
2018-08-10T00:45:54.490Z,100322.05
2018-08-10T00:48:25.157Z,100320.50
2018-08-10T00:50:55.737Z,100316.77
2018-08-10T00:53:26.317Z,100319.44
2018-08-10T00:55:56.928Z,100318.87
2018-08-10T00:58:27.346Z,100317.70
2018-08-10T01:01:03.372Z,100316.88
2018-08-10T01:03:34.101Z,100322.51
2018-08-10T01:06:04.445Z,100317.44
2018-08-10T01:08:35.069Z,100322.36
2018-08-10T01:11:05.741Z,100322.41
2018-08-10T01:13:36.367Z,100316.48
2018-08-10T01:16:06.670Z,100317.55
2018-08-10T01:18:36.964Z,100313.51
2018-08-10T01:21:07.776Z,100312.25
2018-08-10T01:23:38.452Z,100311.42
2018-08-10T01:26:08.999Z,100311.17
2018-08-10T01:28:39.813Z,100302.94
2018-08-10T01:31:10.458Z,100303.80
2018-08-10T01:33:41.141Z,100304.30
2018-08-10T01:36:11.693Z,100294.59
2018-08-10T01:38:42.649Z,100301.23
2018-08-10T01:41:12.957Z,100306.22
2018-08-10T01:43:43.611Z,100301.05
2018-08-10T01:46:14.093Z,100290.83
2018-08-10T01:48:44.749Z,100297.59
2018-08-10T01:51:15.301Z,100301.49
2018-08-10T01:53:45.932Z,100305.58
2018-08-10T01:56:16.469Z,100309.53
2018-08-10T01:58:47.128Z,100307.63
2018-08-10T02:01:17.589Z,100311.33
2018-08-10T02:03:48.456Z,100312.19
2018-08-10T02:06:18.953Z,100316.36
2018-08-10T02:08:49.716Z,100317.19
2018-08-10T02:11:20.242Z,100312.13
2018-08-10T02:13:51.017Z,100315.03
2018-08-10T02:16:21.762Z,100322.34
2018-08-10T02:18:52.673Z,100320.83
2018-08-10T02:21:23.338Z,100325.81
2018-08-10T02:23:54.240Z,100329.08
2018-08-10T02:26:24.896Z,100329.84
2018-08-10T02:28:55.777Z,100322.98
2018-08-10T02:31:26.401Z,100331.19
2018-08-10T02:33:57.051Z,100341.72
2018-08-10T02:36:27.624Z,100348.47
2018-08-10T02:38:58.666Z,100354.05
2018-08-10T02:41:29.317Z,100350.64
2018-08-10T02:44:00.121Z,100345.00
2018-08-10T02:46:30.688Z,100345.27
2018-08-10T02:49:01.698Z,100345.95
2018-08-10T02:51:32.321Z,100354.70
2018-08-10T02:54:03.081Z,100345.19
2018-08-10T02:56:33.805Z,100350.09
2018-08-10T02:59:04.927Z,100348.78
2018-08-10T03:01:35.632Z,100348.20
2018-08-10T03:04:06.378Z,100353.69
2018-08-10T03:06:36.976Z,100350.64
2018-08-10T03:09:10.575Z,100347.41
2018-08-10T03:11:40.904Z,100351.27
2018-08-10T03:14:11.468Z,100355.39
2018-08-10T03:16:42.142Z,100358.33
2018-08-10T03:19:12.911Z,100363.08
2018-08-10T03:21:43.496Z,100361.98
2018-08-10T03:24:14.961Z,100364.25
2018-08-10T03:26:45.567Z,100366.52
2018-08-10T03:29:16.166Z,100370.53
2018-08-10T03:31:46.740Z,100370.99
2018-08-10T03:34:17.633Z,100371.09
2018-08-10T03:36:48.257Z,100368.75
2018-08-10T03:39:19.113Z,100369.77
2018-08-10T03:41:49.875Z,100374.38
2018-08-10T03:44:20.450Z,100377.75
2018-08-10T03:46:51.115Z,100380.86
2018-08-10T03:49:26.812Z,100387.52
2018-08-10T03:51:57.776Z,100386.34
2018-08-10T03:54:28.514Z,100373.14
2018-08-10T03:56:59.448Z,100369.48
2018-08-10T03:59:30.107Z,100375.16
2018-08-10T04:02:00.821Z,100376.23
2018-08-10T04:04:31.734Z,100378.27
2018-08-10T04:07:02.385Z,100378.11
2018-08-10T04:09:33.197Z,100388.06
2018-08-10T04:12:03.841Z,100394.98
2018-08-10T04:14:34.937Z,100394.66
2018-08-10T04:17:05.693Z,100387.06
2018-08-10T04:19:36.623Z,100396.19
2018-08-10T04:22:08.620Z,100400.72
2018-08-10T04:24:39.449Z,100403.45
2018-08-10T04:27:10.033Z,100411.77
2018-08-10T04:29:41.043Z,100405.44
2018-08-10T04:32:12.148Z,100401.50
2018-08-10T04:34:42.638Z,100407.23
2018-08-10T04:37:13.496Z,100410.37
2018-08-10T04:39:44.254Z,100405.73
2018-08-10T04:42:14.905Z,100403.97
2018-08-10T04:44:45.705Z,100404.08
2018-08-10T04:47:16.421Z,100403.09
2018-08-10T04:49:47.180Z,100404.22
2018-08-10T04:52:17.885Z,100404.72
2018-08-10T04:54:49.517Z,100407.52
2018-08-10T04:57:20.181Z,100409.88
2018-08-10T04:59:50.910Z,100410.67
2018-08-10T05:02:21.421Z,100418.02
2018-08-10T05:04:52.212Z,100411.91
2018-08-10T05:07:22.861Z,100408.59
2018-08-10T05:09:53.675Z,100406.58
2018-08-10T05:12:24.318Z,100413.08
2018-08-10T05:14:54.964Z,100410.17
2018-08-10T05:17:25.545Z,100415.16
2018-08-10T05:19:56.357Z,100411.29
2018-08-10T05:22:27.049Z,100413.66
2018-08-10T05:24:58.217Z,100407.66
2018-08-10T05:27:28.880Z,100410.15
2018-08-10T05:29:59.840Z,100407.30
2018-08-10T05:32:30.432Z,100404.12
2018-08-10T05:35:01.491Z,100407.30
2018-08-10T05:37:32.197Z,100413.40
2018-08-10T05:40:03.085Z,100411.58
2018-08-10T05:42:33.756Z,100408.98
2018-08-10T05:45:04.351Z,100406.58
2018-08-10T05:47:35.001Z,100410.45
2018-08-10T05:50:06.614Z,100410.52
2018-08-10T05:52:37.318Z,100413.13
2018-08-10T05:55:08.457Z,100405.64
2018-08-10T05:57:39.052Z,100412.34
2018-08-10T06:00:10.134Z,100410.94
2018-08-10T06:02:40.772Z,100419.48
2018-08-10T06:05:11.556Z,100423.06
2018-08-10T06:07:42.169Z,100422.10
2018-08-10T06:10:12.905Z,100413.02
2018-08-10T06:12:43.297Z,100413.41
2018-08-10T06:15:14.110Z,100413.52
2018-08-10T06:17:44.853Z,100414.91
2018-08-10T06:20:15.717Z,100416.34
2018-08-10T06:22:46.596Z,100418.72
2018-08-10T06:25:17.449Z,100421.32
2018-08-10T06:27:48.273Z,100420.77
2018-08-10T06:30:18.972Z,100421.66
2018-08-10T06:32:49.510Z,100417.69
2018-08-10T06:35:20.317Z,100418.98
2018-08-10T06:37:51.082Z,100416.17
2018-08-10T06:40:21.733Z,100416.34
2018-08-10T06:42:52.402Z,100423.45
2018-08-10T06:45:23.644Z,100420.14
2018-08-10T06:47:54.479Z,100425.30
2018-08-10T06:50:25.245Z,100421.08
2018-08-10T06:52:55.863Z,100417.58
2018-08-10T06:55:26.845Z,100424.09
2018-08-10T06:57:57.464Z,100417.81
2018-08-10T07:00:28.414Z,100423.44
2018-08-10T07:02:59.058Z,100432.09
2018-08-10T07:05:30.019Z,100427.91
2018-08-10T07:08:00.569Z,100433.23
2018-08-10T07:10:31.475Z,100435.80
2018-08-10T07:13:02.436Z,100444.70
2018-08-10T07:15:33.236Z,100441.22
2018-08-10T07:18:04.105Z,100438.13
2018-08-10T07:20:34.763Z,100441.45
2018-08-10T07:23:05.677Z,100435.85
2018-08-10T07:25:36.509Z,100434.83
2018-08-10T07:28:07.161Z,100436.74
2018-08-10T07:30:37.905Z,100432.96
2018-08-10T07:33:08.621Z,100431.84
2018-08-10T07:35:39.333Z,100422.69
2018-08-10T07:38:10.153Z,100429.26
2018-08-10T07:40:40.681Z,100429.81
2018-08-10T07:43:11.026Z,100432.00
2018-08-10T07:45:41.846Z,100429.09
2018-08-10T07:48:12.409Z,100435.59
2018-08-10T07:50:43.133Z,100432.20
2018-08-10T07:53:13.876Z,100433.20
2018-08-10T07:55:44.741Z,100435.98
2018-08-10T07:58:15.397Z,100442.30
2018-08-10T08:00:46.114Z,100432.05
2018-08-10T08:03:16.720Z,100421.55
2018-08-10T08:05:47.033Z,100423.59
2018-08-10T08:08:17.325Z,100424.34
2018-08-10T08:10:48.177Z,100429.54
2018-08-10T08:13:18.817Z,100432.66
2018-08-10T08:15:49.664Z,100433.17
2018-08-10T08:18:20.361Z,100431.75
2018-08-10T08:21:06.926Z,100423.95
2018-08-10T08:23:37.509Z,100426.99
2018-08-10T08:26:08.547Z,100423.69
2018-08-10T08:28:39.364Z,100425.84
2018-08-10T08:31:10.029Z,100422.72
2018-08-10T08:33:56.910Z,100416.96
2018-08-10T08:36:27.669Z,100429.90
2018-08-10T08:39:22.500Z,100423.25
2018-08-10T08:41:53.537Z,100435.00
2018-08-10T08:44:40.401Z,100430.13
2018-08-10T08:47:11.124Z,100430.30
2018-08-10T08:49:41.605Z,100422.73
2018-08-10T08:52:12.564Z,100427.64
2018-08-10T08:55:39.500Z,100422.12
2018-08-10T08:58:10.576Z,100411.73
2018-08-10T09:00:41.061Z,100413.95
2018-08-10T09:03:28.485Z,100413.97
2018-08-10T09:05:59.841Z,100414.66
2018-08-10T09:08:30.588Z,100399.30
2018-08-10T09:11:02.641Z,100402.45
2018-08-10T09:14:44.125Z,100406.94
2018-08-10T09:17:14.758Z,100398.12
2018-08-10T09:19:45.353Z,100398.58
2018-08-10T09:22:16.013Z,100398.51
2018-08-10T09:24:46.872Z,100389.81
2018-08-10T09:27:17.588Z,100400.83
2018-08-10T09:29:48.321Z,100391.88
2018-08-10T09:32:19.014Z,100393.15
2018-08-10T09:34:49.700Z,100388.78
2018-08-10T09:37:20.464Z,100394.36
2018-08-10T09:39:51.330Z,100386.79
2018-08-10T09:42:21.859Z,100382.22
2018-08-10T09:44:52.519Z,100387.61
2018-08-10T09:47:23.281Z,100385.38
2018-08-10T09:49:54.165Z,100388.63
2018-08-10T09:52:24.897Z,100371.91
2018-08-10T09:55:33.448Z,100376.91
2018-08-10T09:58:09.240Z,100371.61
2018-08-10T10:00:45.066Z,100381.45
2018-08-10T10:03:17.227Z,100369.89
2018-08-10T10:05:48.745Z,100364.66
2018-08-10T10:08:19.822Z,100343.58
2018-08-10T10:10:50.674Z,100359.44
2018-08-10T10:13:21.249Z,100360.13
2018-08-10T10:15:52.201Z,100373.53
2018-08-10T10:18:22.762Z,100359.11
2018-08-10T10:20:53.512Z,100355.15
2018-08-10T10:23:24.072Z,100348.77
2018-08-10T10:25:55.006Z,100343.81
2018-08-10T10:28:25.762Z,100355.95
2018-08-10T10:30:56.477Z,100347.34
2018-08-10T10:33:26.961Z,100359.04
2018-08-10T10:35:57.733Z,100357.32
2018-08-10T10:38:28.380Z,100357.38
2018-08-10T10:40:59.180Z,100354.22
2018-08-10T10:43:29.935Z,100358.43
2018-08-10T10:46:00.789Z,100361.17
2018-08-10T10:48:31.468Z,100356.20
2018-08-10T10:51:02.815Z,100356.90
2018-08-10T10:53:33.345Z,100352.32
2018-08-10T10:56:05.085Z,100343.45
2018-08-10T10:58:35.724Z,100346.27
2018-08-10T11:01:06.497Z,100342.42
2018-08-10T11:03:36.912Z,100345.05
2018-08-10T11:06:07.933Z,100339.69
2018-08-10T11:08:38.812Z,100329.02
2018-08-10T11:11:09.169Z,100333.84
2018-08-10T11:13:39.497Z,100339.00
2018-08-10T11:16:10.207Z,100333.45
2018-08-10T11:18:40.485Z,100333.49
2018-08-10T11:21:11.464Z,100331.56
2018-08-10T11:23:42.130Z,100332.05
2018-08-10T11:26:12.813Z,100328.34
2018-08-10T11:28:43.541Z,100334.12
2018-08-10T11:31:14.369Z,100330.12
2018-08-10T11:33:45.171Z,100330.72
2018-08-10T11:36:16.405Z,100317.96
2018-08-10T11:38:47.067Z,100325.69
2018-08-10T11:41:17.792Z,100330.62
2018-08-10T11:43:48.421Z,100326.45
2018-08-10T11:46:19.798Z,100320.14
2018-08-10T11:48:50.657Z,100319.12
2018-08-10T11:51:21.472Z,100317.02
2018-08-10T11:54:01.144Z,100314.94
2018-08-10T11:56:32.081Z,100313.99
2018-08-10T11:59:02.749Z,100322.27
2018-08-10T12:01:33.606Z,100315.75
2018-08-10T12:04:04.266Z,100307.17
2018-08-10T12:06:34.835Z,100302.30
2018-08-10T12:09:07.661Z,100292.16
2018-08-10T12:11:39.213Z,100294.10
2018-08-10T12:14:10.502Z,100286.28
2018-08-10T12:16:41.349Z,100273.78
2018-08-10T12:19:11.774Z,100272.14
2018-08-10T12:21:42.592Z,100274.04
2018-08-10T12:24:13.430Z,100275.84
2018-08-10T12:26:43.774Z,100268.38
2018-08-10T12:29:14.468Z,100263.53
2018-08-10T12:31:45.083Z,100257.47
2018-08-10T12:34:15.560Z,100258.30
2018-08-10T12:36:46.205Z,100261.34
2018-08-10T12:39:16.858Z,100252.89
2018-08-10T12:41:47.556Z,100261.91
2018-08-10T12:44:18.209Z,100261.50
2018-08-10T12:46:48.905Z,100252.11
2018-08-10T12:49:19.517Z,100251.28
2018-08-10T12:51:50.317Z,100253.23
2018-08-10T12:54:21.661Z,100248.00
2018-08-10T12:56:52.492Z,100250.03
2018-08-10T12:59:23.219Z,100238.61
2018-08-10T13:01:54.233Z,100239.41
2018-08-10T13:04:24.756Z,100237.06
2018-08-10T13:06:55.348Z,100235.71
2018-08-10T13:09:25.992Z,100234.88
2018-08-10T13:11:56.757Z,100223.48
2018-08-10T13:14:27.249Z,100221.05
2018-08-10T13:16:57.967Z,100222.07
2018-08-10T13:19:28.852Z,100216.08
2018-08-10T13:21:59.622Z,100220.45
2018-08-10T13:24:30.353Z,100206.72
2018-08-10T13:27:01.118Z,100214.81
2018-08-10T13:29:31.756Z,100214.14
2018-08-10T13:32:02.722Z,100215.72
2018-08-10T13:34:33.586Z,100212.19
2018-08-10T13:37:04.625Z,100217.36
2018-08-10T13:39:35.205Z,100201.77
2018-08-10T13:42:05.990Z,100201.84
2018-08-10T13:44:36.576Z,100202.48
2018-08-10T13:47:07.508Z,100200.50
2018-08-10T13:49:38.403Z,100198.03
2018-08-10T13:52:10.216Z,100196.71
2018-08-10T13:54:40.928Z,100179.80
2018-08-10T13:57:11.914Z,100195.50
2018-08-10T13:59:42.529Z,100192.13
2018-08-10T14:02:13.349Z,100191.16
2018-08-10T14:04:44.036Z,100197.78
2018-08-10T14:07:15.100Z,100197.90
2018-08-10T14:09:45.579Z,100189.45
2018-08-10T14:12:16.308Z,100200.14
2018-08-10T14:14:46.956Z,100197.72
2018-08-10T14:17:18.038Z,100191.20
2018-08-10T14:19:48.669Z,100193.13
2018-08-10T14:22:19.610Z,100197.38
2018-08-10T14:24:50.244Z,100193.23
2018-08-10T14:27:21.157Z,100185.11
2018-08-10T14:29:51.852Z,100192.02
2018-08-10T14:32:22.704Z,100184.22
2018-08-10T14:34:53.495Z,100186.06
2018-08-10T14:37:24.418Z,100191.78
2018-08-10T14:39:55.182Z,100193.32
2018-08-10T14:42:26.007Z,100189.80
2018-08-10T14:44:57.068Z,100186.84
2018-08-10T14:47:28.436Z,100189.83
2018-08-10T14:49:59.043Z,100197.75
2018-08-10T14:52:29.940Z,100202.91
2018-08-10T14:55:00.397Z,100207.98
2018-08-10T14:57:31.196Z,100213.69
2018-08-10T15:00:01.955Z,100206.52
2018-08-10T15:02:32.662Z,100201.43
2018-08-10T15:05:03.411Z,100204.22
2018-08-10T15:07:34.265Z,100197.80
2018-08-10T15:10:05.450Z,100198.45
2018-08-10T15:12:36.616Z,100196.28
2018-08-10T15:15:09.123Z,100198.42
2018-08-10T15:17:40.017Z,100196.75
2018-08-10T15:20:15.601Z,100188.20
2018-08-10T15:22:46.423Z,100194.69
2018-08-10T15:25:17.109Z,100186.42
2018-08-10T15:27:47.725Z,100183.27
2018-08-10T15:30:19.357Z,100183.97
2018-08-10T15:32:50.284Z,100180.00
2018-08-10T15:35:20.965Z,100179.55
2018-08-10T15:37:51.757Z,100178.25
2018-08-10T15:40:22.500Z,100179.30
2018-08-10T15:42:53.165Z,100179.98
2018-08-10T15:45:24.049Z,100178.20
2018-08-10T15:47:54.952Z,100177.63
2018-08-10T15:50:25.701Z,100180.66
2018-08-10T15:52:56.492Z,100186.98
2018-08-10T15:55:26.982Z,100197.91
2018-08-10T15:57:57.893Z,100191.17
2018-08-10T16:00:28.620Z,100198.53
2018-08-10T16:02:59.230Z,100192.67
2018-08-10T16:05:30.037Z,100195.95
2018-08-10T16:08:00.922Z,100193.52
2018-08-10T16:10:31.481Z,100194.27
2018-08-10T16:13:02.230Z,100198.06
2018-08-10T16:15:32.877Z,100200.64
2018-08-10T16:18:03.765Z,100201.28
2018-08-10T16:20:34.418Z,100198.69
2018-08-10T16:23:05.306Z,100197.66
2018-08-10T16:25:36.008Z,100200.70
2018-08-10T16:28:06.994Z,100208.56
2018-08-10T16:30:37.715Z,100203.30
2018-08-10T16:33:08.678Z,100209.31
2018-08-10T16:35:39.397Z,100211.72
2018-08-10T16:38:10.233Z,100218.27
2018-08-10T16:40:40.792Z,100211.02
2018-08-10T16:43:11.633Z,100209.15
2018-08-10T16:45:42.268Z,100211.48
2018-08-10T16:48:13.265Z,100213.02
2018-08-10T16:50:50.103Z,100216.32
2018-08-10T16:53:20.921Z,100211.61
2018-08-10T16:55:51.405Z,100209.60
2018-08-10T16:58:22.017Z,100209.96
2018-08-10T17:00:52.669Z,100218.22
2018-08-10T17:03:23.478Z,100216.52
2018-08-10T17:06:56.852Z,100217.47
2018-08-10T17:09:27.790Z,100223.33
2018-08-10T17:11:58.369Z,100226.88
2018-08-10T17:14:29.057Z,100230.38
2018-08-10T17:16:59.701Z,100226.35
2018-08-10T17:19:30.448Z,100230.23
2018-08-10T17:22:01.148Z,100230.22
2018-08-10T17:24:32.207Z,100231.59
2018-08-10T17:27:02.868Z,100234.75
2018-08-10T17:29:33.568Z,100232.08
2018-08-10T17:32:04.151Z,100233.32
2018-08-10T17:34:35.234Z,100239.58
2018-08-10T17:37:05.830Z,100244.37
2018-08-10T17:39:39.952Z,100245.81
2018-08-10T17:42:10.529Z,100250.22
2018-08-10T17:44:41.021Z,100261.26
2018-08-10T17:47:11.648Z,100266.27
2018-08-10T17:49:42.469Z,100267.79
2018-08-10T17:52:13.144Z,100270.62
2018-08-10T17:54:44.029Z,100273.44
2018-08-10T17:57:14.711Z,100281.41
2018-08-10T17:59:45.489Z,100291.28
2018-08-10T18:02:16.193Z,100297.17
2018-08-10T18:04:46.897Z,100295.26
2018-08-10T18:07:17.685Z,100295.91
2018-08-10T18:09:48.546Z,100299.02
2018-08-10T18:12:19.048Z,100309.62
2018-08-10T18:14:49.874Z,100313.91
2018-08-10T18:17:20.672Z,100313.67
2018-08-10T18:19:51.320Z,100321.73
2018-08-10T18:24:30.693Z,100329.23
2018-08-10T18:27:01.334Z,100337.72
2018-08-10T18:29:31.941Z,100345.28
2018-08-10T18:32:02.845Z,100343.33
2018-08-10T18:34:33.349Z,100349.61
2018-08-10T18:37:04.092Z,100352.50
2018-08-10T18:39:34.705Z,100351.03
2018-08-10T18:42:05.565Z,100360.98
2018-08-10T18:44:36.203Z,100362.73
2018-08-10T18:47:06.980Z,100375.63
2018-08-10T18:49:37.773Z,100373.00
2018-08-10T18:52:08.721Z,100375.91
2018-08-10T18:54:39.148Z,100379.58
2018-08-10T18:57:09.913Z,100378.03
2018-08-10T18:59:40.673Z,100377.02
2018-08-10T19:02:11.221Z,100374.67
2018-08-10T19:04:41.881Z,100378.59
2018-08-10T19:07:13.026Z,100384.92
2018-08-10T19:09:43.613Z,100384.62
2018-08-10T19:12:14.495Z,100387.16
2018-08-10T19:14:45.157Z,100388.42
2018-08-10T19:17:15.942Z,100386.31
2018-08-10T19:19:46.460Z,100390.67
2018-08-10T19:22:16.857Z,100393.07
2018-08-10T19:24:47.141Z,100392.16
2018-08-10T19:27:17.693Z,100400.02
2018-08-10T19:29:48.359Z,100401.91
2018-08-10T19:32:19.265Z,100407.11
2018-08-10T19:34:49.552Z,100408.69
2018-08-10T19:37:20.192Z,100407.00
2018-08-10T19:39:50.862Z,100412.78
2018-08-10T19:42:21.602Z,100416.64
2018-08-10T19:44:53.094Z,100425.36
2018-08-10T19:47:23.926Z,100425.52
2018-08-10T19:49:54.532Z,100424.12
2018-08-10T19:52:25.191Z,100425.22
2018-08-10T19:54:55.779Z,100426.79
2018-08-10T19:57:26.600Z,100427.66
2018-08-10T19:59:57.354Z,100421.66
2018-08-10T20:02:28.227Z,100425.09
2018-08-10T20:05:00.202Z,100430.36
2018-08-10T20:07:30.966Z,100428.80
2018-08-10T20:10:01.613Z,100428.80
2018-08-10T20:12:32.373Z,100425.23
2018-08-10T20:15:03.979Z,100432.75
2018-08-10T20:17:41.147Z,100431.25
2018-08-10T20:20:13.971Z,100429.56
2018-08-10T20:22:45.744Z,100427.41
2018-08-10T20:25:16.885Z,100429.31
2018-08-10T20:27:48.351Z,100432.94
2018-08-10T20:30:20.092Z,100439.66
2018-08-10T20:32:50.791Z,100446.20
2018-08-10T20:35:21.861Z,100440.30
2018-08-10T20:37:52.493Z,100443.41
2018-08-10T20:40:23.159Z,100444.07
2018-08-10T20:42:53.872Z,100447.59
2018-08-10T20:45:24.666Z,100443.77
2018-08-10T20:47:56.137Z,100446.54
2018-08-10T20:50:26.984Z,100443.59
2018-08-10T20:52:57.685Z,100447.03
2018-08-10T20:55:28.296Z,100442.31
2018-08-10T20:57:58.928Z,100447.69
2018-08-10T21:00:29.701Z,100440.50
2018-08-10T21:03:00.472Z,100452.95
2018-08-10T21:05:31.210Z,100447.03
2018-08-10T21:08:02.206Z,100456.69
2018-08-10T21:10:32.932Z,100450.20
2018-08-10T21:13:03.980Z,100458.33
2018-08-10T21:15:34.781Z,100467.65
2018-08-10T21:18:05.752Z,100466.41
2018-08-10T21:20:36.302Z,100463.91
2018-08-10T21:23:06.982Z,100461.45
2018-08-10T21:25:37.705Z,100461.03
2018-08-10T21:28:08.345Z,100468.65
2018-08-10T21:30:39.040Z,100472.55
2018-08-10T21:33:09.709Z,100471.08
2018-08-10T21:35:40.261Z,100476.17
2018-08-10T21:38:11.369Z,100469.39
2018-08-10T21:40:41.966Z,100478.03
2018-08-10T21:43:12.690Z,100476.88
2018-08-10T21:45:43.325Z,100480.61
2018-08-10T21:48:14.068Z,100481.48
2018-08-10T21:50:44.761Z,100478.38
2018-08-10T21:53:15.457Z,100476.55
2018-08-10T21:55:46.232Z,100472.25
2018-08-10T21:58:17.000Z,100479.61
2018-08-10T22:00:53.729Z,100481.17
2018-08-10T22:03:24.996Z,100477.53
2018-08-10T22:05:55.620Z,100475.20
2018-08-10T22:08:26.293Z,100478.95
2018-08-10T22:10:56.977Z,100470.98
2018-08-10T22:13:32.605Z,100477.13
2018-08-10T22:16:08.119Z,100477.19
2018-08-10T22:18:43.596Z,100477.85
2018-08-10T22:21:14.081Z,100472.61
2018-08-10T22:23:44.881Z,100470.87
2018-08-10T22:26:15.576Z,100475.89
2018-08-10T22:28:46.397Z,100478.74
2018-08-10T22:31:17.025Z,100480.17
2018-08-10T22:33:47.553Z,100479.88
2018-08-10T22:36:18.252Z,100482.83
2018-08-10T22:38:49.004Z,100473.89
2018-08-10T22:41:19.617Z,100470.91
2018-08-10T22:43:50.648Z,100475.16
2018-08-10T22:46:21.136Z,100477.10
2018-08-10T22:48:51.908Z,100467.61
2018-08-10T22:51:22.548Z,100469.25
2018-08-10T22:53:53.316Z,100467.43
2018-08-10T22:56:24.076Z,100471.19
2018-08-10T22:58:54.852Z,100463.63
2018-08-10T23:01:25.735Z,100468.11
2018-08-10T23:03:56.425Z,100472.11
2018-08-10T23:06:27.329Z,100464.20
2018-08-10T23:08:58.241Z,100469.71
2018-08-10T23:11:28.848Z,100461.42
2018-08-10T23:13:59.520Z,100465.16
2018-08-10T23:16:30.240Z,100457.03
2018-08-10T23:19:01.099Z,100459.09
2018-08-10T23:21:31.821Z,100453.06
2018-08-10T23:24:02.633Z,100449.45
2018-08-10T23:26:33.267Z,100455.56
2018-08-10T23:29:03.893Z,100442.64
2018-08-10T23:31:34.584Z,100438.13
2018-08-10T23:34:05.412Z,100437.63
2018-08-10T23:36:36.271Z,100439.22
2018-08-10T23:39:10.576Z,100435.20
2018-08-10T23:41:41.789Z,100432.42
2018-08-10T23:44:12.502Z,100426.15
2018-08-10T23:46:43.072Z,100429.09
2018-08-10T23:49:13.742Z,100429.41
2018-08-10T23:51:44.485Z,100427.49
2018-08-10T23:54:15.161Z,100422.88
2018-08-10T23:56:45.918Z,100428.77
2018-08-10T23:59:16.714Z,100429.04
